Time;durP1;ratioP1;P1;durP2;ratioP2;P2;SDS_P1;SDS_P2;PMS_P1;PMS_P2;Temp;Humidity;BMP_temperature;BMP_pressure;BME280_temperature;BME280_humidity;BME280_pressure;Samples;Min_cycle;Max_cycle;Signal;HPM_P1;HPM_P2
2022/06/22 00:02:35;;;;;;;15.23;10.93;;;13.20;99.90;;;;;;10443822;28;20391;-69
2022/06/22 00:07:42;;;;;;;15.57;10.32;;;13.10;99.90;;;;;;10451063;28;20090;-69
2022/06/22 00:12:49;;;;;;;12.40;9.93;;;13.10;99.90;;;;;;10427542;28;20416;-68
2022/06/22 00:17:51;;;;;;;15.20;10.05;;;13.10;99.90;;;;;;10429536;28;20056;-68
2022/06/22 00:22:58;;;;;;;14.07;10.15;;;13.00;99.90;;;;;;10447184;28;20079;-68
2022/06/22 00:28:29;;;;;;;13.98;9.88;;;13.00;99.90;;;;;;10454509;28;20132;-68
2022/06/22 00:33:31;;;;;;;11.68;8.02;;;13.00;99.90;;;;;;10456266;28;20448;-68
2022/06/22 00:38:34;;;;;;;10.60;8.95;;;12.90;99.90;;;;;;10460333;28;20057;-68
2022/06/22 00:43:37;;;;;;;11.38;9.10;;;12.90;99.90;;;;;;10445189;28;20127;-68
2022/06/22 00:48:39;;;;;;;12.07;8.57;;;12.70;99.90;;;;;;10450035;28;20489;-68
2022/06/22 00:53:46;;;;;;;10.20;9.07;;;12.60;99.90;;;;;;10453048;28;20048;-68
2022/06/22 00:58:56;;;;;;;13.18;9.50;;;12.50;99.90;;;;;;10426767;28;20045;-68
2022/06/22 01:04:06;;;;;;;16.40;11.68;;;12.40;99.90;;;;;;10438807;28;20437;-68
2022/06/22 01:09:18;;;;;;;18.42;11.90;;;12.40;99.90;;;;;;10456833;28;20041;-68
2022/06/22 01:14:25;;;;;;;13.07;10.27;;;12.40;99.90;;;;;;10455600;28;20144;-68
2022/06/22 01:19:40;;;;;;;14.52;11.02;;;12.30;99.90;;;;;;10445585;28;20566;-68
2022/06/22 01:24:54;;;;;;;18.88;13.30;;;12.20;99.90;;;;;;10456699;28;20102;-68
2022/06/22 01:30:00;;;;;;;16.13;12.90;;;12.20;99.90;;;;;;10457277;28;20070;-68
2022/06/22 01:35:04;;;;;;;;;;;12.20;99.90;;;;;;10454224;28;20476;-68
2022/06/22 01:40:13;;;;;;;15.98;13.43;;;12.10;99.90;;;;;;10456929;28;19920;-68
2022/06/22 01:45:24;;;;;;;14.57;13.05;;;12.00;99.90;;;;;;10436707;28;20057;-68
2022/06/22 01:50:31;;;;;;;18.25;14.27;;;12.00;99.90;;;;;;10452626;28;20064;-68
2022/06/22 01:55:42;;;;;;;17.63;12.55;;;11.90;99.90;;;;;;10423949;28;20144;-68
2022/06/22 02:00:50;;;;;;;20.48;14.25;;;11.90;99.90;;;;;;10447159;28;20037;-68
2022/06/22 02:05:58;;;;;;;21.35;13.80;;;11.90;99.90;;;;;;10454890;28;20132;-69
2022/06/22 02:11:06;;;;;;;16.15;12.20;;;11.80;99.90;;;;;;10455085;28;20095;-68
2022/06/22 02:16:15;;;;;;;18.55;14.32;;;11.80;99.90;;;;;;10449096;28;20552;-73
2022/06/22 02:21:20;;;;;;;17.95;13.77;;;11.80;99.90;;;;;;10466277;28;20040;-67
2022/06/22 02:26:29;;;;;;;13.70;10.37;;;11.60;99.90;;;;;;10414529;28;20140;-67
2022/06/22 02:31:33;;;;;;;17.08;10.88;;;11.50;99.90;;;;;;10445075;28;20140;-67
2022/06/22 02:36:42;;;;;;;18.60;12.77;;;11.30;99.90;;;;;;10454987;28;20545;-67
2022/06/22 02:47:20;;;;;;;21.60;12.77;;;11.30;99.90;;;;;;10427765;28;20479;-67
2022/06/22 02:52:24;;;;;;;19.05;16.75;;;11.20;99.90;;;;;;10426259;28;20044;-67
2022/06/22 02:57:38;;;;;;;21.38;12.90;;;11.20;99.90;;;;;;10446179;28;20080;-67
2022/06/22 03:02:42;;;;;;;20.00;14.13;;;11.10;99.90;;;;;;10437641;28;20045;-67
2022/06/22 03:07:49;;;;;;;18.08;15.35;;;11.20;99.90;;;;;;10453718;28;20099;-66
2022/06/22 03:12:51;;;;;;;20.45;16.25;;;11.30;99.90;;;;;;10452788;28;20135;-67
2022/06/22 03:17:57;;;;;;;21.08;15.90;;;11.30;99.90;;;;;;10445006;28;20052;-67
2022/06/22 03:23:08;;;;;;;17.40;12.13;;;11.20;99.90;;;;;;10428412;28;20044;-67
2022/06/22 03:28:18;;;;;;;18.85;15.32;;;11.20;99.90;;;;;;10452784;28;20051;-68
2022/06/22 03:33:27;;;;;;;13.55;10.75;;;11.10;99.90;;;;;;10451965;28;20076;-67
2022/06/22 03:38:34;;;;;;;13.98;9.57;;;11.00;99.90;;;;;;10432177;28;20045;-68
2022/06/22 03:43:42;;;;;;;17.02;10.18;;;11.10;99.90;;;;;;10451063;28;20440;-68
2022/06/22 03:48:52;;;;;;;15.35;10.40;;;11.10;99.90;;;;;;10451629;28;20494;-69
2022/06/22 03:54:01;;;;;;;15.27;10.48;;;11.10;99.90;;;;;;10441539;28;20405;-68
2022/06/22 03:59:06;;;;;;;19.90;12.68;;;11.10;99.90;;;;;;10432572;28;20049;-68
2022/06/22 04:04:10;;;;;;;20.95;16.30;;;11.10;99.90;;;;;;10442402;28;20060;-68
2022/06/22 04:09:15;;;;;;;30.02;22.73;;;11.10;99.90;;;;;;10442495;28;20071;-68
2022/06/22 04:14:21;;;;;;;38.47;23.08;;;11.10;99.90;;;;;;10445010;28;20041;-69
2022/06/22 04:19:29;;;;;;;27.17;18.75;;;11.10;99.90;;;;;;10445948;28;20528;-68
2022/06/22 04:24:36;;;;;;;34.92;24.15;;;11.00;99.90;;;;;;10450363;28;20084;-68
2022/06/22 04:29:43;;;;;;;23.95;15.93;;;11.00;99.90;;;;;;10445542;28;20045;-68
2022/06/22 04:34:52;;;;;;;27.13;18.60;;;11.10;99.90;;;;;;10450435;28;20425;-68
2022/06/22 04:40:00;;;;;;;32.42;21.60;;;11.00;99.90;;;;;;10457606;28;20549;-68
2022/06/22 04:45:03;;;;;;;23.02;16.77;;;10.90;99.90;;;;;;10455910;28;20413;-68
2022/06/22 04:50:11;;;;;;;37.20;24.55;;;11.00;99.90;;;;;;10456244;28;20052;-68
2022/06/22 04:55:18;;;;;;;32.28;17.90;;;11.20;99.90;;;;;;10440714;28;20099;-68
2022/06/22 05:00:24;;;;;;;34.15;23.15;;;11.50;99.90;;;;;;10426556;28;20075;-68
2022/06/22 05:05:29;;;;;;;;;;;11.60;99.90;;;;;;10438572;28;20095;-68
2022/06/22 05:10:40;;;;;;;32.65;18.38;;;12.20;99.90;;;;;;10416330;28;20286;-69
2022/06/22 05:15:45;;;;;;;35.60;23.45;;;12.80;99.90;;;;;;10430874;28;20049;-69
2022/06/22 05:20:52;;;;;;;37.40;23.60;;;13.40;99.90;;;;;;10441709;28;20603;-68
2022/06/22 05:25:58;;;;;;;31.45;22.45;;;13.20;99.90;;;;;;10430756;28;20403;-76
2022/06/22 05:31:03;;;;;;;33.77;15.93;;;12.90;99.90;;;;;;10441364;28;20059;-73
2022/06/22 05:36:09;;;;;;;26.67;15.97;;;12.90;99.90;;;;;;10448822;28;20559;-74
2022/06/22 05:41:12;;;;;;;27.23;15.85;;;13.00;99.90;;;;;;10444239;28;20535;-75
2022/06/22 05:46:16;;;;;;;26.38;19.30;;;13.10;99.90;;;;;;10441106;28;20128;-82
2022/06/22 05:51:28;;;;;;;39.08;22.85;;;13.40;99.90;;;;;;10428989;28;20059;-73
2022/06/22 05:56:36;;;;;;;31.13;24.23;;;13.60;99.90;;;;;;10437574;28;20048;-76
2022/06/22 06:01:46;;;;;;;29.63;21.40;;;13.80;99.90;;;;;;10438004;28;20130;-77
2022/06/22 06:06:50;;;;;;;27.77;19.80;;;13.90;99.90;;;;;;10442831;28;20132;-75
2022/06/22 06:11:58;;;;;;;27.30;17.75;;;14.60;99.90;;;;;;10444982;28;20060;-78
2022/06/22 06:17:08;;;;;;;24.10;20.00;;;14.80;99.90;;;;;;10448050;28;20044;-78
2022/06/22 06:22:12;;;;;;;29.67;17.63;;;14.90;99.90;;;;;;10447612;28;20041;-77
2022/06/22 06:27:35;;;;;;;26.55;17.90;;;15.00;99.90;;;;;;10441043;28;20649;-78
2022/06/22 06:32:40;;;;;;;28.42;18.45;;;15.20;99.90;;;;;;10439848;28;20095;-78
2022/06/22 06:37:53;;;;;;;20.95;15.55;;;15.10;99.90;;;;;;10424769;28;20081;-77
2022/06/22 06:43:13;;;;;;;22.52;16.48;;;15.70;99.90;;;;;;10457694;28;20140;-78
2022/06/22 06:48:20;;;;;;;27.20;17.08;;;16.10;99.90;;;;;;10445498;28;20625;-77
2022/06/22 06:53:30;;;;;;;21.88;15.82;;;15.90;99.90;;;;;;10434542;28;20091;-77
2022/06/22 06:58:40;;;;;;;17.60;12.07;;;15.80;99.90;;;;;;10450235;28;20060;-77
2022/06/22 07:03:43;;;;;;;18.20;12.60;;;16.10;99.90;;;;;;10448231;28;20069;-76
2022/06/22 07:08:49;;;;;;;15.27;9.20;;;16.30;99.90;;;;;;10416529;28;20081;-76
2022/06/22 07:13:55;;;;;;;16.25;8.45;;;17.20;99.90;;;;;;10422995;28;20049;-76
2022/06/22 07:19:02;;;;;;;8.50;3.30;;;18.40;99.90;;;;;;10429939;28;20045;-76
2022/06/22 07:24:13;;;;;;;11.98;7.03;;;19.20;99.90;;;;;;10447414;28;20095;-76
2022/06/22 07:29:22;;;;;;;7.97;5.00;;;19.90;99.90;;;;;;10442640;28;20036;-76
2022/06/22 07:34:28;;;;;;;13.75;7.20;;;20.20;99.90;;;;;;10436633;28;20045;-77
2022/06/22 07:39:39;;;;;;;11.05;5.65;;;20.30;99.90;;;;;;10445645;28;20136;-77
2022/06/22 07:44:42;;;;;;;6.20;3.30;;;20.30;99.90;;;;;;10432346;28;20091;-76
2022/06/22 07:49:48;;;;;;;12.20;6.00;;;20.00;99.90;;;;;;10438071;28;20140;-77
2022/06/22 07:54:58;;;;;;;8.32;4.78;;;20.10;99.90;;;;;;10439554;28;20468;-76
2022/06/22 08:00:05;;;;;;;6.85;3.65;;;20.40;99.90;;;;;;10422256;28;20486;-76
2022/06/22 08:05:12;;;;;;;10.77;4.18;;;20.80;99.90;;;;;;10424938;28;20140;-76
2022/06/22 08:10:23;;;;;;;9.57;4.25;;;20.90;99.90;;;;;;10438701;28;20509;-76
2022/06/22 08:15:25;;;;;;;8.18;3.55;;;20.30;99.90;;;;;;10451157;28;20215;-76
2022/06/22 08:20:31;;;;;;;9.10;3.45;;;20.00;99.90;;;;;;10427897;28;20465;-77
2022/06/22 08:25:36;;;;;;;5.05;3.03;;;20.40;99.90;;;;;;10411965;28;20672;-77
2022/06/22 08:30:38;;;;;;;6.30;3.28;;;19.90;99.90;;;;;;10414550;28;20138;-77
2022/06/22 08:35:46;;;;;;;8.77;3.80;;;20.60;99.90;;;;;;10409742;28;20077;-77
2022/06/22 08:40:57;;;;;;;12.68;5.93;;;21.40;99.90;;;;;;10423864;28;20485;-76
2022/06/22 08:46:23;;;;;;;11.82;6.32;;;21.30;99.90;;;;;;10442650;28;20470;-76
2022/06/22 08:51:39;;;;;;;14.63;6.30;;;20.80;99.90;;;;;;10455271;28;20057;-77
2022/06/22 08:56:52;;;;;;;10.75;5.40;;;19.80;99.90;;;;;;10417475;28;20504;-77
2022/06/22 09:02:11;;;;;;;10.32;6.03;;;19.50;99.90;;;;;;10445559;28;20147;-76
2022/06/22 09:07:31;;;;;;;10.10;5.97;;;19.40;99.90;;;;;;10423857;28;20137;-77
2022/06/22 09:12:46;;;;;;;12.50;6.32;;;19.30;99.90;;;;;;10436562;28;20080;-77
2022/06/22 09:18:14;;;;;;;9.23;4.28;;;19.30;99.90;;;;;;10441638;28;20777;-77
2022/06/22 09:23:31;;;;;;;8.88;5.03;;;19.70;99.90;;;;;;10417179;28;20124;-77
2022/06/22 09:28:43;;;;;;;11.13;5.35;;;19.80;99.90;;;;;;10420384;28;20084;-77
2022/06/22 09:34:06;;;;;;;10.52;5.22;;;19.40;99.90;;;;;;10421844;28;20073;-76
2022/06/22 09:39:42;;;;;;;7.45;4.05;;;19.30;99.90;;;;;;10438211;28;20056;-76
2022/06/22 09:45:07;;;;;;;7.93;4.23;;;19.60;99.90;;;;;;10416954;28;20080;-77
2022/06/22 09:50:48;;;;;;;6.15;3.92;;;20.10;99.90;;;;;;10434640;28;20145;-77
2022/06/22 09:56:22;;;;;;;5.70;3.33;;;20.00;99.90;;;;;;10415489;28;20041;-76
2022/06/22 10:01:33;;;;;;;9.05;3.80;;;20.30;99.90;;;;;;10430514;28;20048;-77
2022/06/22 10:06:57;;;;;;;5.28;2.92;;;20.40;99.90;;;;;;10435137;28;20045;-88
2022/06/22 10:12:12;;;;;;;9.48;3.90;;;20.70;99.90;;;;;;10430871;28;20560;-86
2022/06/22 10:17:29;;;;;;;7.10;3.83;;;21.10;99.90;;;;;;10445961;28;20139;-79
2022/06/22 10:22:46;;;;;;;8.65;3.63;;;21.20;98.40;;;;;;10451293;28;20481;-84
2022/06/22 10:28:05;;;;;;;9.52;4.20;;;21.20;99.90;;;;;;10448017;28;20604;-85
2022/06/22 10:33:43;;;;;;;7.95;4.13;;;21.50;99.70;;;;;;10427740;28;20099;-84
2022/06/22 10:39:02;;;;;;;10.45;4.03;;;21.50;99.00;;;;;;10414535;28;20045;-84
2022/06/22 10:45:11;;;;;;;10.20;3.70;;;21.70;99.00;;;;;;10452762;28;20402;-78
2022/06/22 10:50:30;;;;;;;8.32;4.07;;;21.90;99.80;;;;;;10452885;28;20057;-81
2022/06/22 10:55:56;;;;;;;9.25;3.70;;;22.10;99.50;;;;;;10452046;28;20099;-81
2022/06/22 11:01:22;;;;;;;6.70;3.77;;;22.20;99.90;;;;;;10452403;28;20115;-80
2022/06/22 11:06:54;;;;;;;7.30;3.47;;;22.40;99.90;;;;;;10452345;28;20051;-81
2022/06/22 11:12:13;;;;;;;6.22;3.53;;;22.50;99.90;;;;;;10451136;28;20057;-79
2022/06/22 11:17:33;;;;;;;7.88;3.58;;;22.70;99.90;;;;;;10450270;28;20143;-79
2022/06/22 11:22:40;;;;;;;8.25;3.97;;;22.80;98.10;;;;;;10437606;28;20056;-80
2022/06/22 11:33:57;;;;;;;10.50;3.80;;;23.00;98.40;;;;;;10372873;28;20978;-81
2022/06/22 11:39:33;;;;;;;10.32;3.88;;;23.00;97.20;;;;;;10365096;28;20077;-80
2022/06/22 11:50:38;;;;;;;5.68;2.90;;;23.00;99.10;;;;;;10411278;28;20478;-81
2022/06/22 11:55:45;;;;;;;10.65;4.47;;;23.20;99.90;;;;;;10412452;28;20045;-81
2022/06/22 12:01:12;;;;;;;7.82;3.72;;;23.30;97.60;;;;;;10411218;28;20046;-81
2022/06/22 12:06:42;;;;;;;8.63;3.55;;;23.50;96.70;;;;;;10391854;28;20096;-80
2022/06/22 12:11:57;;;;;;;8.05;3.78;;;23.50;96.80;;;;;;10389677;28;20500;-81
2022/06/22 12:17:11;;;;;;;6.43;3.60;;;23.50;97.30;;;;;;10409584;28;20057;-81
2022/06/22 12:22:23;;;;;;;6.45;3.42;;;23.40;97.40;;;;;;10409708;28;20075;-81
2022/06/22 12:27:30;;;;;;;9.07;4.18;;;23.50;96.60;;;;;;10427102;28;20051;-81
2022/06/22 12:32:37;;;;;;;8.52;4.03;;;23.50;96.50;;;;;;10418494;28;20095;-81
2022/06/22 12:37:45;;;;;;;5.43;3.10;;;23.60;97.00;;;;;;10418920;28;20084;-81
2022/06/22 12:43:06;;;;;;;6.22;2.92;;;23.50;97.90;;;;;;10418183;28;20084;-81
2022/06/22 12:48:27;;;;;;;8.43;4.38;;;23.60;98.40;;;;;;10416324;28;20490;-81
2022/06/22 12:53:32;;;;;;;7.78;3.90;;;23.80;96.40;;;;;;10405462;28;20057;-81
2022/06/22 12:58:44;;;;;;;7.90;4.28;;;23.80;96.50;;;;;;10416661;28;20106;-81
2022/06/22 13:03:53;;;;;;;11.90;4.10;;;23.90;96.00;;;;;;10418412;28;20068;-81
2022/06/22 13:08:55;;;;;;;7.95;3.83;;;23.50;96.40;;;;;;10415066;28;20350;-81
2022/06/22 13:14:08;;;;;;;9.10;3.95;;;23.20;96.50;;;;;;10415959;28;20462;-81
2022/06/22 13:19:16;;;;;;;10.68;3.42;;;23.30;96.00;;;;;;10418968;28;20161;-81
2022/06/22 13:24:27;;;;;;;7.90;3.08;;;23.20;96.10;;;;;;10420754;28;20490;-80
2022/06/22 13:29:35;;;;;;;4.85;2.60;;;23.30;96.90;;;;;;10416221;28;20783;-81
2022/06/22 13:34:44;;;;;;;7.43;3.80;;;23.60;97.30;;;;;;10416711;28;20494;-81
2022/06/22 13:40:02;;;;;;;7.32;4.00;;;23.70;96.80;;;;;;10416594;28;20387;-80
2022/06/22 13:45:20;;;;;;;8.30;3.80;;;23.60;97.50;;;;;;10416493;28;20457;-80
2022/06/22 13:50:51;;;;;;;7.53;4.00;;;23.20;97.20;;;;;;10415277;28;20145;-82
2022/06/22 13:55:59;;;;;;;6.90;3.65;;;23.10;98.00;;;;;;10414474;28;20104;-81
2022/06/22 14:01:07;;;;;;;10.52;3.58;;;23.10;98.10;;;;;;10415640;28;20053;-82
2022/06/22 14:06:17;;;;;;;9.00;3.90;;;23.30;98.20;;;;;;10415007;28;20451;-81
2022/06/22 14:11:29;;;;;;;8.85;4.13;;;23.40;98.50;;;;;;10413667;28;20061;-81
2022/06/22 14:16:43;;;;;;;9.65;4.00;;;23.10;98.30;;;;;;10391880;28;20132;-81
2022/06/22 14:21:55;;;;;;;5.68;3.75;;;22.80;98.30;;;;;;10387881;28;20087;-81
2022/06/22 14:27:24;;;;;;;12.88;6.03;;;22.70;99.10;;;;;;10415279;28;20050;-81
2022/06/22 14:32:35;;;;;;;7.95;3.97;;;22.90;98.90;;;;;;10415393;28;20159;-80
2022/06/22 14:37:41;;;;;;;9.18;4.47;;;22.90;99.80;;;;;;10408746;28;20137;-81
2022/06/22 14:42:50;;;;;;;8.10;3.75;;;23.00;99.80;;;;;;10377516;28;20145;-81
2022/06/22 14:48:00;;;;;;;11.05;3.90;;;23.20;99.70;;;;;;10391798;28;20068;-81
2022/06/22 14:53:14;;;;;;;8.25;3.88;;;23.20;99.50;;;;;;10394347;28;20629;-80
2022/06/22 14:58:21;;;;;;;8.95;4.30;;;23.00;99.80;;;;;;10377013;28;20141;-81
2022/06/22 15:03:40;;;;;;;7.95;4.55;;;22.80;99.90;;;;;;10392172;28;20144;-83
2022/06/22 15:08:47;;;;;;;11.57;4.28;;;22.70;99.90;;;;;;10392689;28;20050;-82
2022/06/22 15:13:53;;;;;;;9.57;4.30;;;22.70;99.90;;;;;;10392871;28;20443;-82
2022/06/22 15:19:01;;;;;;;;;;;22.80;99.90;;;;;;10394866;28;20057;-81
2022/06/22 15:24:13;;;;;;;8.45;3.92;;;22.70;99.90;;;;;;10452909;28;19921;-80
2022/06/22 15:29:22;;;;;;;8.90;4.03;;;22.60;99.90;;;;;;10444921;28;20095;-77
2022/06/22 15:34:36;;;;;;;11.02;4.32;;;22.40;99.90;;;;;;10419251;28;20099;-80
2022/06/22 15:39:48;;;;;;;9.55;4.78;;;22.50;99.90;;;;;;10437755;28;20418;-80
2022/06/22 15:44:55;;;;;;;13.02;4.50;;;22.40;99.90;;;;;;10449831;28;20087;-80
2022/06/22 15:50:17;;;;;;;14.57;5.20;;;22.20;99.90;;;;;;10447621;28;20094;-80
2022/06/22 15:55:30;;;;;;;9.98;3.97;;;22.20;99.90;;;;;;10418151;28;20049;-80
2022/06/22 16:00:36;;;;;;;12.63;4.32;;;22.10;99.90;;;;;;10448265;28;20073;-80
2022/06/22 16:05:44;;;;;;;8.97;4.63;;;21.80;99.90;;;;;;10428208;28;20080;-80
2022/06/22 16:16:21;;;;;;;9.52;4.22;;;21.50;99.90;;;;;;10443011;28;20049;-80
2022/06/22 16:21:31;;;;;;;6.43;3.35;;;21.50;99.90;;;;;;10432919;28;20461;-79
2022/06/22 16:26:37;;;;;;;7.68;3.78;;;21.50;99.90;;;;;;10413420;28;20045;-79
2022/06/22 16:31:48;;;;;;;6.65;3.65;;;21.60;99.90;;;;;;10428365;28;20455;-78
2022/06/22 16:36:58;;;;;;;7.53;3.78;;;21.50;99.90;;;;;;10418789;28;20115;-77
2022/06/22 16:42:07;;;;;;;6.05;3.63;;;21.40;99.90;;;;;;10445653;28;20055;-80
2022/06/22 16:47:11;;;;;;;8.88;3.72;;;21.30;99.90;;;;;;10447328;28;20091;-78
2022/06/22 16:52:20;;;;;;;6.65;3.60;;;21.20;99.90;;;;;;10409916;28;20076;-77
2022/06/22 16:57:26;;;;;;;7.05;3.60;;;21.00;99.90;;;;;;10408172;28;20494;-79
2022/06/22 17:02:36;;;;;;;11.82;2.97;;;21.10;99.90;;;;;;10397200;28;20061;-82
2022/06/22 17:07:50;;;;;;;9.25;3.20;;;21.10;99.90;;;;;;10413865;28;20053;-82
2022/06/22 17:12:56;;;;;;;9.70;3.53;;;21.00;99.90;;;;;;10410751;28;20085;-84
2022/06/22 17:18:03;;;;;;;7.00;3.47;;;20.90;99.90;;;;;;10411940;28;20077;-80
2022/06/22 17:23:14;;;;;;;8.57;2.83;;;20.70;99.90;;;;;;10411594;28;20064;-81
2022/06/22 17:28:24;;;;;;;6.60;2.88;;;20.60;99.90;;;;;;10404724;28;20046;-82
2022/06/22 17:33:31;;;;;;;5.90;2.70;;;20.50;99.90;;;;;;10415208;28;20470;-80
2022/06/22 17:38:53;;;;;;;5.70;2.60;;;20.40;99.90;;;;;;10415283;28;20103;-81
2022/06/22 17:44:02;;;;;;;7.30;2.80;;;20.50;99.90;;;;;;10413245;28;20051;-79
2022/06/22 17:49:06;;;;;;;6.38;2.30;;;20.40;99.90;;;;;;10403992;28;20112;-80
2022/06/22 17:54:26;;;;;;;6.50;2.60;;;20.30;99.90;;;;;;10414887;28;20085;-79
2022/06/22 17:59:32;;;;;;;5.38;2.40;;;20.30;99.90;;;;;;10414400;28;20049;-80
2022/06/22 18:04:38;;;;;;;;;;;20.10;99.90;;;;;;10411370;28;20146;-80
2022/06/22 18:09:47;;;;;;;6.03;2.57;;;19.90;99.90;;;;;;10420711;28;19959;-78
2022/06/22 18:15:02;;;;;;;5.25;2.50;;;19.70;99.90;;;;;;10420385;28;20084;-81
2022/06/22 18:20:08;;;;;;;4.47;2.30;;;19.60;99.90;;;;;;10391812;28;20068;-81
2022/06/22 18:25:26;;;;;;;4.47;2.50;;;19.50;99.90;;;;;;10402521;28;20044;-76
2022/06/22 18:30:33;;;;;;;3.20;1.90;;;19.40;99.90;;;;;;10407634;28;20087;-77
2022/06/22 18:35:43;;;;;;;4.85;2.58;;;19.30;99.90;;;;;;10397909;28;20509;-75
2022/06/22 18:46:23;;;;;;;4.30;2.40;;;18.90;99.90;;;;;;10410638;28;20045;-75
2022/06/22 18:51:30;;;;;;;5.38;2.40;;;18.80;99.90;;;;;;10405068;28;20654;-78
2022/06/22 18:56:44;;;;;;;5.88;2.97;;;18.60;99.90;;;;;;10404591;28;20104;-76
2022/06/22 19:01:45;;;;;;;4.78;2.30;;;18.60;99.90;;;;;;10390992;28;20148;-76
2022/06/22 19:06:50;;;;;;;3.92;2.53;;;18.50;99.90;;;;;;10401488;28;20049;-74
2022/06/22 19:11:56;;;;;;;5.03;2.40;;;18.40;99.90;;;;;;10402715;28;20104;-78
2022/06/22 19:17:02;;;;;;;;;;;18.40;99.90;;;;;;10397823;28;20574;-76
2022/06/22 19:22:33;;;;;;;3.83;2.30;;;18.30;99.90;;;;;;10483766;28;19964;-75
2022/06/22 19:27:42;;;;;;;4.38;2.45;;;18.10;99.90;;;;;;10447485;28;20076;-77
2022/06/22 19:34:43;;;;;;;4.55;3.10;;;18.10;99.90;;;;;;6346203;27;20601;-71
2022/06/22 19:37:52;;;;;;;5.13;2.60;;;18.00;99.90;;;;;;6271856;28;20529;-72
2022/06/22 19:41:02;;;;;;;4.43;2.70;;;18.00;99.90;;;;;;6267476;28;20067;-72
2022/06/22 19:44:17;;;;;;;5.43;2.78;;;17.90;99.90;;;;;;6242786;28;20045;-73
2022/06/22 19:47:26;;;;;;;5.05;2.65;;;17.80;99.90;;;;;;6249648;28;20500;-72
2022/06/22 19:50:36;;;;;;;5.45;2.83;;;17.70;99.90;;;;;;6242264;28;20057;-72
2022/06/22 19:53:45;;;;;;;8.35;2.75;;;17.70;99.90;;;;;;6265543;28;20560;-73
2022/06/22 19:56:51;;;;;;;6.00;2.80;;;17.50;99.90;;;;;;6256927;28;20060;-74
2022/06/22 19:59:53;;;;;;;3.33;2.70;;;17.30;99.90;;;;;;6252359;28;20053;-72
2022/06/22 20:03:06;;;;;;;4.10;2.80;;;17.20;99.90;;;;;;6245604;28;20056;-72
2022/06/22 20:06:15;;;;;;;4.63;2.80;;;17.10;99.90;;;;;;6261246;28;20224;-70
2022/06/22 20:09:24;;;;;;;5.10;3.25;;;17.00;99.90;;;;;;6267073;28;20060;-70
2022/06/22 20:12:36;;;;;;;4.50;2.97;;;16.90;99.90;;;;;;6263871;28;20049;-70
2022/06/22 20:15:44;;;;;;;5.72;3.25;;;16.80;99.90;;;;;;6265601;28;20111;-70
2022/06/22 20:18:46;;;;;;;4.72;3.10;;;16.70;99.90;;;;;;6264458;28;20062;-70
2022/06/22 20:21:56;;;;;;;5.30;2.92;;;16.60;99.90;;;;;;6287121;28;20057;-70
2022/06/22 20:25:06;;;;;;;3.38;2.47;;;16.50;99.90;;;;;;6255524;28;20053;-70
2022/06/22 20:28:16;;;;;;;4.97;2.70;;;16.40;99.90;;;;;;6263643;28;20068;-69
2022/06/22 20:31:34;;;;;;;3.97;3.40;;;16.40;99.90;;;;;;6245999;28;20041;-70
2022/06/22 20:34:52;;;;;;;3.70;3.38;;;16.30;99.90;;;;;;6255822;28;20046;-69
2022/06/22 20:37:56;;;;;;;4.03;3.15;;;16.30;99.90;;;;;;6265275;28;20045;-69
2022/06/22 20:44:55;;;;;;;4.15;3.70;;;16.20;99.90;;;;;;6238680;28;20481;-70
2022/06/22 20:48:15;;;;;;;5.72;3.92;;;16.20;99.90;;;;;;6275654;28;20071;-69
2022/06/22 20:51:23;;;;;;;4.68;3.95;;;16.20;99.90;;;;;;6249602;28;20057;-69
2022/06/22 20:54:31;;;;;;;6.30;3.90;;;16.10;99.90;;;;;;6237668;28;20511;-69
2022/06/22 20:57:36;;;;;;;6.68;4.20;;;16.00;99.90;;;;;;6246846;28;20045;-70
2022/06/22 21:00:41;;;;;;;5.05;3.90;;;15.90;99.90;;;;;;6271268;28;20077;-69
2022/06/22 21:03:49;;;;;;;4.50;3.83;;;15.90;99.90;;;;;;6224403;28;20054;-69
2022/06/22 21:06:55;;;;;;;5.72;4.10;;;15.80;99.90;;;;;;6243275;28;20054;-69
2022/06/22 21:10:02;;;;;;;5.65;4.28;;;15.70;99.90;;;;;;6236291;28;20053;-69
2022/06/22 21:13:06;;;;;;;5.28;4.18;;;15.60;99.90;;;;;;6223516;28;20060;-69
2022/06/22 21:16:28;;;;;;;6.65;3.92;;;15.60;99.90;;;;;;6241193;28;20432;-69
2022/06/22 21:19:52;;;;;;;11.60;4.88;;;15.60;99.90;;;;;;6244905;28;20484;-69
2022/06/22 21:23:28;;;;;;;5.30;4.18;;;15.60;99.90;;;;;;6238924;28;20504;-69
2022/06/22 21:26:34;;;;;;;4.10;3.17;;;15.50;99.90;;;;;;6235775;28;20056;-69
2022/06/22 21:29:39;;;;;;;3.80;3.40;;;15.60;99.90;;;;;;6266994;28;20065;-69
2022/06/22 21:32:41;;;;;;;4.15;3.53;;;15.50;99.90;;;;;;6226128;28;20054;-70
2022/06/22 21:36:00;;;;;;;6.10;3.80;;;15.50;99.90;;;;;;6240175;28;20065;-70
2022/06/22 21:39:10;;;;;;;5.10;3.70;;;15.40;99.90;;;;;;6248372;28;20065;-69
2022/06/22 21:42:19;;;;;;;5.50;3.50;;;15.30;99.90;;;;;;6228516;28;20050;-70
2022/06/22 21:45:31;;;;;;;4.88;3.72;;;15.30;99.90;;;;;;6228244;28;20045;-69
2022/06/22 21:48:47;;;;;;;4.47;3.78;;;15.30;99.90;;;;;;6247660;28;20419;-69
2022/06/22 21:52:01;;;;;;;6.60;3.80;;;15.20;99.90;;;;;;6248920;28;20056;-70
2022/06/22 21:55:12;;;;;;;5.72;3.92;;;15.10;99.90;;;;;;6236481;28;20507;-69
2022/06/22 21:58:49;;;;;;;5.90;3.70;;;15.00;99.90;;;;;;6246734;28;20084;-69
2022/06/22 22:02:01;;;;;;;4.30;3.90;;;14.80;99.90;;;;;;6259723;28;20061;-70
2022/06/22 22:05:10;;;;;;;4.20;3.80;;;14.70;99.90;;;;;;6229650;28;20049;-69
2022/06/22 22:08:14;;;;;;;7.95;4.68;;;14.70;99.90;;;;;;6253587;28;20071;-70
2022/06/22 22:11:17;;;;;;;4.95;4.45;;;14.70;99.90;;;;;;6266645;28;20053;-69
2022/06/22 22:14:27;;;;;;;4.78;4.35;;;14.70;99.90;;;;;;6232860;28;20041;-69
2022/06/22 22:17:33;;;;;;;5.20;4.70;;;14.70;99.90;;;;;;6275410;28;20045;-68
2022/06/22 22:20:38;;;;;;;7.45;4.57;;;14.70;99.90;;;;;;6255951;28;20049;-69
2022/06/22 22:23:44;;;;;;;7.63;4.95;;;14.50;99.90;;;;;;6239107;28;20045;-69
2022/06/22 22:26:50;;;;;;;5.95;5.30;;;14.30;99.90;;;;;;6260284;28;20053;-69
2022/06/22 22:30:06;;;;;;;5.05;4.53;;;14.10;99.90;;;;;;6232211;28;20071;-68
2022/06/22 22:33:12;;;;;;;7.10;5.78;;;14.20;99.90;;;;;;6258317;28;20540;-68
2022/06/22 22:36:18;;;;;;;6.05;4.35;;;14.20;99.90;;;;;;6246681;28;20049;-69
2022/06/22 22:39:26;;;;;;;6.30;4.63;;;14.20;99.90;;;;;;6279999;28;20508;-69
2022/06/22 22:42:29;;;;;;;6.75;6.05;;;14.20;99.90;;;;;;6275433;28;20485;-68
2022/06/22 22:45:35;;;;;;;6.97;6.28;;;14.30;99.90;;;;;;6223773;28;20046;-69
2022/06/22 22:48:45;;;;;;;8.55;6.50;;;14.20;99.90;;;;;;6254582;28;20184;-68
2022/06/22 22:51:50;;;;;;;8.35;7.18;;;14.10;99.90;;;;;;6224950;28;20057;-69
2022/06/22 22:54:56;;;;;;;7.95;7.15;;;14.10;99.90;;;;;;6232811;28;20191;-69
2022/06/22 22:58:01;;;;;;;8.07;7.07;;;14.10;99.90;;;;;;6255724;28;20417;-69
2022/06/22 23:01:15;;;;;;;8.80;7.90;;;14.10;99.90;;;;;;6224838;28;20417;-68
2022/06/22 23:04:22;;;;;;;8.55;7.40;;;14.00;99.90;;;;;;6227124;28;20046;-69
2022/06/22 23:07:24;;;;;;;10.20;8.48;;;14.00;99.90;;;;;;6223190;28;20076;-68
2022/06/22 23:10:30;;;;;;;8.50;7.10;;;13.90;99.90;;;;;;6240217;28;20504;-69
2022/06/22 23:13:36;;;;;;;10.27;7.22;;;13.90;99.90;;;;;;6245205;28;20041;-69
2022/06/22 23:16:43;;;;;;;11.18;8.25;;;13.90;99.90;;;;;;6240075;28;20053;-69
2022/06/22 23:19:48;;;;;;;9.45;7.90;;;13.90;99.90;;;;;;6245514;28;20416;-69
2022/06/22 23:22:56;;;;;;;9.40;8.00;;;13.80;99.90;;;;;;6244773;28;20532;-69
2022/06/22 23:26:01;;;;;;;11.25;8.68;;;13.70;99.90;;;;;;6234846;28;20054;-68
2022/06/22 23:29:06;;;;;;;8.65;7.75;;;13.70;99.90;;;;;;6222314;28;20046;-69
2022/06/22 23:32:15;;;;;;;12.32;8.52;;;13.70;99.90;;;;;;6222337;28;20050;-69
2022/06/22 23:35:20;;;;;;;10.20;8.68;;;13.60;99.90;;;;;;6239976;28;20046;-68
2022/06/22 23:38:22;;;;;;;12.93;9.60;;;13.70;99.90;;;;;;6275660;28;20064;-69
2022/06/22 23:41:24;;;;;;;11.63;9.38;;;13.70;99.90;;;;;;6242084;28;20056;-69
2022/06/22 23:44:26;;;;;;;12.38;9.57;;;13.70;99.90;;;;;;6239858;28;20045;-68
2022/06/22 23:50:53;;;;;;;11.55;10.02;;;13.70;99.90;;;;;;6254422;28;20062;-68
2022/06/22 23:53:57;;;;;;;12.30;10.13;;;13.70;99.90;;;;;;6220979;28;20140;-69
2022/06/22 23:57:02;;;;;;;9.80;8.73;;;13.70;99.90;;;;;;6236785;28;20068;-69
